Time;durP1;ratioP1;P1;durP2;ratioP2;P2;SDS_P1;SDS_P2;PMS_P1;PMS_P2;Temp;Humidity;BMP_temperature;BMP_pressure;BME280_temperature;BME280_humidity;BME280_pressure;Samples;Min_cycle;Max_cycle;Signal;HPM_P1;HPM_P2
2022/07/05 00:00:09;;;;;;;8.10;5.30;;;;;;;17.38;73.35;93674.47;5091323;28;20028;-45
2022/07/05 00:02:34;;;;;;;6.13;5.05;;;;;;;17.27;73.50;93680.63;5100716;28;20019;-46
2022/07/05 00:05:00;;;;;;;8.60;6.43;;;;;;;17.42;73.14;93680.34;5097481;28;20031;-46
2022/07/05 00:07:25;;;;;;;6.30;5.70;;;;;;;17.13;74.32;93676.06;5108687;28;20047;-45
2022/07/05 00:09:53;;;;;;;5.82;5.20;;;;;;;17.21;74.32;93679.44;5111293;28;20023;-47
2022/07/05 00:12:21;;;;;;;7.97;5.13;;;;;;;17.25;74.64;93674.91;5111799;28;20393;-47
2022/07/05 00:14:49;;;;;;;5.57;5.03;;;;;;;17.47;73.15;93675.03;5111389;28;20571;-46
2022/07/05 00:17:15;;;;;;;7.75;5.35;;;;;;;17.47;72.73;93673.00;5111319;28;20024;-48
2022/07/05 00:19:41;;;;;;;15.63;5.28;;;;;;;17.32;72.55;93642.59;5111365;28;20085;-48
2022/07/05 00:22:07;;;;;;;6.35;4.82;;;;;;;17.47;72.57;93659.03;5111594;28;20019;-47
2022/07/05 00:24:33;;;;;;;8.13;4.55;;;;;;;17.56;71.67;93660.38;5111564;28;20507;-47
2022/07/05 00:26:58;;;;;;;5.30;4.38;;;;;;;17.62;70.88;93677.56;5111080;28;20176;-47
2022/07/05 00:29:23;;;;;;;7.63;4.38;;;;;;;17.63;70.13;93670.66;5099758;28;20023;-46
2022/07/05 00:31:49;;;;;;;11.13;4.75;;;;;;;17.34;71.15;93663.00;5099077;28;20019;-46
2022/07/05 00:34:15;;;;;;;5.63;4.45;;;;;;;17.22;70.97;93639.78;5090672;28;20479;-46
2022/07/05 00:36:40;;;;;;;8.88;5.65;;;;;;;17.30;71.63;93640.38;5090510;28;20059;-46
2022/07/05 00:39:06;;;;;;;9.55;5.50;;;;;;;16.98;73.01;93657.53;5090508;28;20016;-45
2022/07/05 00:41:32;;;;;;;7.07;4.70;;;;;;;17.15;72.40;93662.28;5090747;28;20028;-46
2022/07/05 00:43:59;;;;;;;6.15;4.70;;;;;;;17.20;71.53;93664.03;5090413;28;20031;-42
2022/07/05 00:46:26;;;;;;;6.55;4.32;;;;;;;16.96;71.79;93659.44;5090540;28;20073;-41
2022/07/05 00:48:52;;;;;;;6.57;4.85;;;;;;;16.66;73.03;93641.97;5089802;28;20530;-43
2022/07/05 00:51:17;;;;;;;4.95;4.22;;;;;;;16.71;72.32;93653.41;5089605;28;20053;-44
2022/07/05 00:53:43;;;;;;;7.20;3.95;;;;;;;16.67;72.74;93651.78;5090505;28;20051;-40
2022/07/05 00:56:13;;;;;;;7.93;4.57;;;;;;;16.64;73.16;93655.75;5088982;28;20477;-40
2022/07/05 00:58:38;;;;;;;6.22;4.53;;;;;;;16.53;73.50;93642.38;5090015;28;20020;-42
2022/07/05 01:01:06;;;;;;;6.05;4.07;;;;;;;16.74;72.79;93643.88;5090526;28;20089;-42
2022/07/05 01:03:32;;;;;;;5.85;4.85;;;;;;;16.83;72.84;93645.97;5106860;28;20027;-44
2022/07/05 01:05:59;;;;;;;5.72;4.57;;;;;;;16.73;72.95;93645.19;5110004;28;20026;-42
2022/07/05 01:08:24;;;;;;;7.47;4.65;;;;;;;16.45;73.95;93625.03;5108660;28;20118;-43
2022/07/05 01:10:51;;;;;;;4.70;4.30;;;;;;;16.68;73.48;93633.00;5110224;28;20030;-43
2022/07/05 01:13:17;;;;;;;8.40;4.30;;;;;;;16.72;73.12;93638.16;5110457;28;20023;-43
2022/07/05 01:15:42;;;;;;;8.52;5.30;;;;;;;16.77;73.06;93614.81;5110245;28;20068;-46
2022/07/05 01:18:08;;;;;;;7.50;5.53;;;;;;;16.78;72.82;93633.75;5110323;28;20106;-46
2022/07/05 01:20:34;;;;;;;9.00;5.38;;;;;;;16.51;73.56;93614.34;5110072;28;20015;-44
2022/07/05 01:23:01;;;;;;;7.82;5.63;;;;;;;16.75;73.53;93636.97;5110424;28;20070;-44
2022/07/05 01:25:28;;;;;;;10.38;5.85;;;;;;;16.70;73.58;93626.84;5109122;28;20107;-44
2022/07/05 01:27:55;;;;;;;8.93;5.60;;;;;;;16.65;74.19;93628.59;5110343;27;20459;-44
2022/07/05 01:30:20;;;;;;;9.85;5.68;;;;;;;16.56;74.49;93634.91;5110476;28;20031;-44
2022/07/05 01:32:46;;;;;;;6.13;5.07;;;;;;;16.40;74.55;93634.38;5110220;28;20444;-44
2022/07/05 01:35:12;;;;;;;10.52;5.05;;;;;;;16.31;74.20;93637.88;5109970;27;20024;-44
2022/07/05 01:37:39;;;;;;;7.15;5.13;;;;;;;16.27;74.50;93645.19;5109872;28;20034;-42
2022/07/05 01:40:05;;;;;;;6.45;5.18;;;;;;;16.43;74.04;93636.00;5110122;28;20031;-44
2022/07/05 01:42:31;;;;;;;11.60;5.55;;;;;;;16.44;73.47;93642.31;5109851;27;20522;-43
2022/07/05 01:44:56;;;;;;;7.40;4.53;;;;;;;16.41;74.06;93644.22;5091336;28;20028;-44
2022/07/05 01:47:22;;;;;;;5.50;4.32;;;;;;;16.45;73.94;93647.31;5088686;28;20024;-42
2022/07/05 01:49:51;;;;;;;4.80;4.35;;;;;;;16.43;73.33;93649.94;5089668;28;20413;-44
2022/07/05 01:52:17;;;;;;;4.68;4.25;;;;;;;16.28;72.88;93658.56;5088354;28;20027;-43
2022/07/05 01:54:43;;;;;;;6.13;4.72;;;;;;;16.26;73.35;93657.66;5088219;28;20020;-44
2022/07/05 01:57:09;;;;;;;5.65;4.72;;;;;;;16.23;72.76;93662.34;5089486;28;20020;-44
2022/07/05 01:59:36;;;;;;;11.82;4.93;;;;;;;16.07;73.48;93655.53;5089332;28;20020;-47
2022/07/05 02:02:02;;;;;;;5.38;4.68;;;;;;;16.06;74.17;93661.69;5095846;28;20024;-45
2022/07/05 02:04:28;;;;;;;7.65;4.70;;;;;;;16.14;73.60;93668.59;5089544;28;20408;-46
2022/07/05 02:06:54;;;;;;;7.10;5.57;;;;;;;15.98;74.17;93659.03;5100909;28;20027;-44
2022/07/05 02:09:19;;;;;;;7.60;5.32;;;;;;;16.08;73.88;93664.63;5109636;28;20028;-46
2022/07/05 02:11:45;;;;;;;5.43;4.47;;;;;;;16.15;73.90;93658.19;5109607;28;20845;-44
2022/07/05 02:14:11;;;;;;;12.23;4.85;;;;;;;16.09;73.76;93663.31;5109564;28;20026;-45
2022/07/05 02:16:37;;;;;;;6.53;4.35;;;;;;;16.20;73.58;93669.06;5107778;28;20393;-46
2022/07/05 02:19:02;;;;;;;8.20;5.15;;;;;;;15.88;75.32;93661.00;5110615;28;20022;-44
2022/07/05 02:21:28;;;;;;;8.27;4.57;;;;;;;15.75;75.04;93664.16;5113644;28;20019;-45
2022/07/05 02:23:54;;;;;;;5.20;4.63;;;;;;;15.87;73.56;93670.69;5113353;28;20046;-46
2022/07/05 02:26:19;;;;;;;6.85;4.40;;;;;;;15.90;73.65;93666.72;5113507;28;20040;-44
2022/07/05 02:28:45;;;;;;;7.00;5.00;;;;;;;15.81;74.01;93657.00;5113115;27;20026;-43
2022/07/05 02:31:10;;;;;;;6.30;5.05;;;;;;;15.92;73.78;93659.28;5112966;28;20050;-43
2022/07/05 02:33:36;;;;;;;6.07;4.78;;;;;;;15.90;74.29;93663.94;5113351;28;20080;-43
2022/07/05 02:36:12;;;;;;;5.68;4.97;;;;;;;15.99;73.54;93671.63;5113464;28;20507;-43
2022/07/05 02:38:38;;;;;;;7.97;4.90;;;;;;;15.79;73.52;93661.69;5112752;28;20081;-43
2022/07/05 02:41:08;;;;;;;5.68;4.90;;;;;;;15.69;74.75;93669.25;5095161;28;20531;-43
2022/07/05 02:43:34;;;;;;;7.85;5.15;;;;;;;15.49;75.42;93665.63;5092012;28;20101;-43
2022/07/05 02:46:00;;;;;;;7.10;5.43;;;;;;;15.74;74.95;93666.19;5092437;28;20039;-45
2022/07/05 02:48:26;;;;;;;6.07;4.82;;;;;;;15.64;74.53;93664.69;5092377;28;20527;-44
2022/07/05 02:50:51;;;;;;;8.40;4.78;;;;;;;15.67;74.07;93666.31;5092392;28;20020;-44
2022/07/05 02:53:17;;;;;;;10.30;4.68;;;;;;;15.43;73.93;93665.13;5092317;28;20027;-44
2022/07/05 02:55:42;;;;;;;5.22;4.72;;;;;;;15.46;73.72;93666.03;5092159;28;20020;-43
2022/07/05 02:58:08;;;;;;;5.05;4.22;;;;;;;15.58;73.50;93672.56;5092143;28;20016;-42
2022/07/05 03:00:33;;;;;;;6.10;4.20;;;;;;;15.50;73.34;93661.53;5092061;28;20078;-43
2022/07/05 03:02:59;;;;;;;15.07;4.30;;;;;;;15.64;73.15;93653.53;5104314;28;20187;-44
2022/07/05 03:05:24;;;;;;;4.97;4.22;;;;;;;15.63;73.29;93652.09;5112195;28;20529;-45
2022/07/05 03:07:49;;;;;;;4.93;4.00;;;;;;;15.67;72.98;93652.41;5108467;28;20064;-44
2022/07/05 03:10:15;;;;;;;9.85;4.50;;;;;;;15.71;73.10;93658.28;5112120;27;20023;-44
2022/07/05 03:12:40;;;;;;;10.73;4.00;;;;;;;15.67;73.01;93658.72;5112211;28;20027;-46
2022/07/05 03:15:07;;;;;;;5.82;3.90;;;;;;;15.56;73.40;93650.13;5112656;28;20023;-43
2022/07/05 03:17:32;;;;;;;8.65;4.05;;;;;;;15.58;73.88;93653.06;5112047;28;20028;-41
2022/07/05 03:19:57;;;;;;;9.15;5.25;;;;;;;15.67;73.78;93646.81;5111734;28;20027;-42
2022/07/05 03:22:23;;;;;;;7.45;4.85;;;;;;;15.53;73.92;93654.06;5112433;28;20016;-42
2022/07/05 03:24:48;;;;;;;5.43;4.40;;;;;;;15.44;74.35;93652.69;5112297;28;20084;-41
2022/07/05 03:27:14;;;;;;;4.80;4.30;;;;;;;15.54;73.90;93645.16;5112197;28;20020;-41
2022/07/05 03:29:39;;;;;;;3.95;3.47;;;;;;;15.65;73.36;93647.41;5111522;28;20024;-41
2022/07/05 03:32:05;;;;;;;9.10;4.13;;;;;;;15.68;72.56;93642.75;5103295;28;20536;-41
2022/07/05 03:34:31;;;;;;;4.15;3.60;;;;;;;15.69;71.96;93649.78;5111946;28;20066;-42
2022/07/05 03:36:56;;;;;;;10.45;4.72;;;;;;;15.62;72.15;93645.03;5111773;28;20063;-43
2022/07/05 03:39:21;;;;;;;5.10;4.60;;;;;;;15.60;73.24;93642.09;5111946;28;20024;-44
2022/07/05 03:41:47;;;;;;;7.97;4.53;;;;;;;15.50;73.71;93642.06;5111752;28;20030;-44
2022/07/05 03:44:13;;;;;;;6.93;4.22;;;;;;;15.66;73.27;93640.53;5110966;28;20032;-43
2022/07/05 03:46:38;;;;;;;6.18;4.57;;;;;;;15.55;73.79;93645.88;5111383;28;20096;-46
2022/07/05 03:49:04;;;;;;;6.57;4.70;;;;;;;15.65;73.59;93643.88;5111821;28;20095;-43
2022/07/05 03:51:29;;;;;;;6.93;4.15;;;;;;;15.67;73.41;93639.22;5102953;28;20559;-44
2022/07/05 03:53:55;;;;;;;11.15;4.60;;;;;;;15.71;73.66;93638.78;5095271;28;20106;-43
2022/07/05 03:56:23;;;;;;;6.43;4.47;;;;;;;15.67;73.80;93639.22;5090406;28;20028;-44
2022/07/05 03:58:51;;;;;;;9.05;4.68;;;;;;;15.70;73.66;93640.84;5097580;28;20397;-44
2022/07/05 04:01:16;;;;;;;8.93;4.00;;;;;;;15.87;73.18;93642.84;5099941;28;20464;-44
2022/07/05 04:03:42;;;;;;;3.58;3.20;;;;;;;15.92;73.50;93650.19;5106610;28;20066;-42
2022/07/05 04:06:09;;;;;;;7.40;3.83;;;;;;;15.83;74.22;93645.31;5102184;28;20023;-43
2022/07/05 04:08:34;;;;;;;5.95;4.32;;;;;;;15.60;74.97;93637.28;5110990;27;20048;-43
2022/07/05 04:11:00;;;;;;;5.43;3.90;;;;;;;15.77;74.63;93636.47;5110967;27;20457;-42
2022/07/05 04:13:26;;;;;;;5.20;4.00;;;;;;;16.01;74.02;93646.69;5110964;28;20028;-43
2022/07/05 04:15:53;;;;;;;6.22;3.97;;;;;;;16.15;73.44;93642.22;5110957;28;20092;-43
2022/07/05 04:18:18;;;;;;;6.93;4.55;;;;;;;16.09;74.13;93646.59;5110812;28;20027;-44
2022/07/05 04:20:44;;;;;;;4.72;3.67;;;;;;;16.16;73.76;93640.16;5109900;28;20027;-44
2022/07/05 04:23:09;;;;;;;6.22;3.70;;;;;;;15.97;74.30;93642.88;5110777;28;20024;-44
2022/07/05 04:25:35;;;;;;;5.50;3.70;;;;;;;16.10;74.87;93631.34;5110639;28;20030;-45
2022/07/05 04:28:00;;;;;;;3.35;3.08;;;;;;;16.13;74.43;93642.09;5111015;27;20098;-44
2022/07/05 04:30:26;;;;;;;7.18;3.67;;;;;;;16.15;74.28;93639.44;5110954;28;20031;-45
2022/07/05 04:32:52;;;;;;;4.03;3.67;;;;;;;16.25;74.19;93640.22;5099413;28;20504;-45
2022/07/05 04:35:18;;;;;;;8.55;4.47;;;;;;;16.36;73.82;93631.28;5097113;28;20034;-45
2022/07/05 04:37:44;;;;;;;6.38;3.97;;;;;;;16.44;73.49;93634.69;5101765;28;20026;-45
2022/07/05 04:40:11;;;;;;;9.68;4.20;;;;;;;16.41;74.23;93635.88;5110565;28;20114;-47
2022/07/05 04:42:37;;;;;;;13.98;6.25;;;;;;;16.50;73.53;93640.72;5109263;28;20061;-46
2022/07/05 04:45:03;;;;;;;10.25;6.55;;;;;;;16.59;72.89;93634.44;5108046;28;20027;-45
2022/07/05 04:47:28;;;;;;;10.75;6.75;;;;;;;16.76;72.45;93632.88;5094767;28;20411;-44
2022/07/05 04:49:55;;;;;;;9.90;6.05;;;;;;;16.92;71.89;93631.25;5098363;28;20024;-47
2022/07/05 04:52:20;;;;;;;7.70;5.57;;;;;;;17.06;71.86;93629.53;5099681;28;20149;-47
2022/07/05 04:54:46;;;;;;;8.63;6.18;;;;;;;17.03;72.21;93633.47;5100402;28;20501;-46
2022/07/05 04:57:12;;;;;;;19.70;7.93;;;;;;;17.00;73.21;93629.81;5098467;28;20016;-45
2022/07/05 04:59:37;;;;;;;20.83;6.53;;;;;;;17.02;72.48;93638.31;5098961;28;20108;-44
2022/07/05 05:02:03;;;;;;;6.07;5.30;;;;;;;16.95;73.31;93635.69;5109942;28;20022;-45
2022/07/05 05:04:28;;;;;;;5.93;5.35;;;;;;;17.01;73.50;93624.97;5109934;28;20023;-45
2022/07/05 05:06:54;;;;;;;5.78;4.63;;;;;;;16.95;73.50;93616.91;5109559;28;20038;-44
2022/07/05 05:09:20;;;;;;;6.68;5.22;;;;;;;17.21;74.15;93618.81;5109772;28;20407;-45
2022/07/05 05:11:46;;;;;;;5.47;4.97;;;;;;;17.34;73.56;93629.53;5110041;28;20028;-44
2022/07/05 05:14:11;;;;;;;15.85;10.50;;;;;;;17.42;72.69;93621.72;5110089;28;20759;-44
2022/07/05 05:16:37;;;;;;;12.05;7.78;;;;;;;17.60;72.30;93624.34;5109711;28;20050;-42
2022/07/05 05:19:02;;;;;;;5.88;4.85;;;;;;;17.77;71.65;93624.91;5109848;28;20030;-45
2022/07/05 05:21:28;;;;;;;15.05;6.43;;;;;;;17.70;72.85;93628.59;5109674;28;20060;-44
2022/07/05 05:23:53;;;;;;;5.93;4.35;;;;;;;17.79;71.25;93618.72;5109608;28;20027;-44
2022/07/05 05:26:19;;;;;;;9.05;4.85;;;;;;;17.86;71.14;93618.56;5109443;28;20019;-46
2022/07/05 05:28:44;;;;;;;8.20;4.22;;;;;;;17.94;71.93;93621.19;5101543;28;20030;-44
2022/07/05 05:31:09;;;;;;;18.00;5.00;;;;;;;18.10;71.44;93617.44;5093406;28;20032;-45
2022/07/05 05:33:35;;;;;;;5.40;3.45;;;;;;;18.13;69.75;93610.66;5109485;28;20039;-47
2022/07/05 05:36:01;;;;;;;7.10;3.22;;;;;;;18.30;69.48;93620.88;5109676;28;20609;-46
2022/07/05 05:38:27;;;;;;;4.47;3.50;;;;;;;18.38;69.52;93623.50;5109625;28;20451;-46
2022/07/05 05:40:52;;;;;;;6.63;3.75;;;;;;;18.49;68.71;93629.22;5108405;28;20115;-46
2022/07/05 05:43:18;;;;;;;6.60;4.38;;;;;;;18.61;68.51;93627.22;5108316;28;20027;-47
2022/07/05 05:45:43;;;;;;;5.93;4.45;;;;;;;18.72;68.36;93626.56;5109843;28;20404;-45
2022/07/05 05:48:09;;;;;;;6.32;4.50;;;;;;;18.73;67.22;93628.03;5109190;28;20042;-46
2022/07/05 05:50:36;;;;;;;4.38;3.58;;;;;;;18.80;66.81;93629.91;5109536;28;20023;-45
2022/07/05 05:53:02;;;;;;;5.68;3.75;;;;;;;18.93;66.66;93628.63;5109416;28;20087;-45
2022/07/05 05:55:29;;;;;;;4.22;3.80;;;;;;;18.95;65.97;93614.78;5109584;28;20102;-45
2022/07/05 05:57:56;;;;;;;12.90;4.15;;;;;;;19.15;67.37;93630.09;5109239;28;20511;-46
2022/07/05 06:00:22;;;;;;;4.70;3.67;;;;;;;19.20;67.50;93631.09;5108504;28;20042;-45
2022/07/05 06:02:49;;;;;;;7.35;4.40;;;;;;;19.27;67.70;93636.50;5098639;28;20127;-45
2022/07/05 06:05:15;;;;;;;14.90;4.05;;;;;;;19.32;67.96;93632.59;5093115;28;20130;-44
2022/07/05 06:07:54;;;;;;;5.00;3.85;;;;;;;19.44;67.45;93638.28;5108796;28;20453;-43
2022/07/05 06:10:23;;;;;;;8.32;4.05;;;;;;;19.55;67.16;93637.59;5109327;28;20027;-43
2022/07/05 06:12:49;;;;;;;3.88;3.22;;;;;;;19.57;66.18;93629.34;5109368;28;20023;-46
2022/07/05 06:15:14;;;;;;;14.18;3.40;;;;;;;19.77;65.56;93646.69;5108969;28;20055;-46
2022/07/05 06:17:40;;;;;;;11.52;3.58;;;;;;;19.88;65.49;93635.50;5109246;28;20172;-45
2022/07/05 06:20:08;;;;;;;3.72;3.40;;;;;;;20.06;63.26;93644.31;5109077;28;20028;-44
2022/07/05 06:22:33;;;;;;;3.33;3.03;;;;;;;20.11;62.86;93632.75;5109330;28;20043;-44
2022/07/05 06:24:59;;;;;;;6.65;2.70;;;;;;;20.28;62.67;93638.03;5100787;28;20452;-46
2022/07/05 06:27:24;;;;;;;4.97;2.90;;;;;;;20.29;59.56;93635.97;5088797;28;20017;-44
2022/07/05 06:29:50;;;;;;;5.88;3.17;;;;;;;20.34;58.11;93649.63;5088821;28;20062;-45
2022/07/05 06:32:15;;;;;;;5.43;3.53;;;;;;;20.48;57.39;93644.16;5087861;28;20552;-44
2022/07/05 06:34:41;;;;;;;5.40;2.60;;;;;;;20.51;55.40;93637.28;5088762;28;20405;-43
2022/07/05 06:37:06;;;;;;;2.80;2.60;;;;;;;20.65;56.83;93635.34;5088773;28;20488;-42
2022/07/05 06:39:33;;;;;;;3.38;3.03;;;;;;;20.77;56.77;93624.13;5088803;28;20024;-43
2022/07/05 06:41:59;;;;;;;3.33;2.78;;;;;;;20.95;56.53;93625.19;5095222;28;20115;-43
2022/07/05 06:44:24;;;;;;;6.88;2.60;;;;;;;21.04;56.94;93627.16;5109030;28;20107;-42
2022/07/05 06:46:50;;;;;;;3.17;2.85;;;;;;;21.19;57.68;93629.44;5108120;28;20085;-44
2022/07/05 06:49:15;;;;;;;5.88;2.83;;;;;;;21.39;56.64;93629.84;5109019;28;20416;-43
2022/07/05 06:51:41;;;;;;;3.67;2.60;;;;;;;21.54;56.35;93618.81;5108375;28;20259;-40
2022/07/05 06:54:06;;;;;;;3.22;2.65;;;;;;;21.70;55.04;93622.50;5099630;28;20035;-43
2022/07/05 06:56:32;;;;;;;3.38;3.08;;;;;;;21.71;55.81;93620.44;5107859;28;20050;-44
2022/07/05 06:58:57;;;;;;;6.50;2.53;;;;;;;21.73;52.91;93617.72;5108644;28;20458;-43
2022/07/05 07:01:22;;;;;;;4.53;2.45;;;;;;;21.91;53.94;93618.03;5107157;28;20400;-43
2022/07/05 07:03:48;;;;;;;5.45;2.80;;;;;;;22.04;53.66;93618.06;5089353;28;20032;-44
2022/07/05 07:06:14;;;;;;;2.97;2.33;;;;;;;21.99;52.01;93621.28;5098496;28;20080;-46
2022/07/05 07:11:24;;;;;;;4.50;2.30;;;;;;;22.21;51.91;93617.59;5107327;28;20112;-44
2022/07/05 07:13:49;;;;;;;4.97;2.55;;;;;;;22.21;52.65;93616.84;5102160;28;20044;-45
2022/07/05 07:16:14;;;;;;;2.55;2.15;;;;;;;22.36;52.73;93611.38;5112217;28;20046;-46
2022/07/05 07:18:40;;;;;;;5.05;2.53;;;;;;;22.49;49.09;93609.91;5111798;28;20047;-45
2022/07/05 07:21:05;;;;;;;8.90;2.58;;;;;;;22.84;50.55;93615.28;5104672;28;20046;-49
2022/07/05 07:23:31;;;;;;;3.47;2.92;;;;;;;23.06;51.20;93610.78;5098386;28;20112;-44
2022/07/05 07:25:56;;;;;;;2.85;2.10;;;;;;;23.31;47.01;93610.63;5105030;28;20032;-48
2022/07/05 07:28:22;;;;;;;2.50;2.30;;;;;;;23.79;46.34;93603.81;5100196;28;20481;-45
2022/07/05 07:30:47;;;;;;;5.28;2.40;;;;;;;24.37;44.51;93605.81;5091724;28;20473;-43
2022/07/05 07:33:12;;;;;;;3.58;2.35;;;;;;;25.04;43.96;93604.59;5094165;28;20475;-45
2022/07/05 07:35:38;;;;;;;2.95;2.53;;;;;;;25.89;41.74;93605.31;5100437;28;20028;-45
2022/07/05 07:38:03;;;;;;;4.47;2.38;;;;;;;26.90;39.78;93599.31;5091043;28;20028;-44
2022/07/05 07:40:29;;;;;;;2.95;2.28;;;;;;;27.81;36.32;93596.75;5091307;28;20100;-45
2022/07/05 07:42:54;;;;;;;2.00;1.80;;;;;;;28.47;32.92;93596.03;5091310;28;20032;-44
2022/07/05 07:45:20;;;;;;;2.58;2.38;;;;;;;28.84;33.05;93594.97;5091109;28;20085;-47
2022/07/05 07:47:45;;;;;;;2.53;1.90;;;;;;;29.36;32.29;93598.56;5091121;28;20031;-45
2022/07/05 07:50:11;;;;;;;4.28;1.88;;;;;;;30.15;31.72;93592.03;5099963;28;20032;-45
2022/07/05 07:52:37;;;;;;;6.00;2.00;;;;;;;30.88;29.20;93597.97;5111554;28;20042;-45
2022/07/05 07:55:04;;;;;;;3.00;1.80;;;;;;;31.57;28.71;93593.59;5111593;28;20027;-46
2022/07/05 07:57:30;;;;;;;2.03;1.83;;;;;;;32.43;29.25;93595.03;5111550;28;20031;-47
2022/07/05 07:59:56;;;;;;;2.72;1.98;;;;;;;33.39;27.34;93604.22;5111515;28;20184;-45
2022/07/05 08:02:22;;;;;;;10.13;3.03;;;;;;;33.86;27.10;93605.41;5104156;28;20601;-47
2022/07/05 08:04:49;;;;;;;2.10;1.90;;;;;;;34.34;25.25;93613.72;5090641;28;20081;-45
2022/07/05 08:07:15;;;;;;;3.90;1.80;;;;;;;34.26;25.56;93614.38;5100546;28;20436;-46
2022/07/05 08:09:40;;;;;;;2.08;1.88;;;;;;;34.47;26.58;93611.66;5102230;28;20024;-44
2022/07/05 08:12:07;;;;;;;4.80;1.88;;;;;;;34.99;24.05;93614.88;5100390;28;20059;-45
2022/07/05 08:14:32;;;;;;;2.50;2.30;;;;;;;35.26;25.91;93622.19;5100018;28;20015;-45
2022/07/05 08:16:58;;;;;;;3.03;2.25;;;;;;;35.49;25.99;93608.69;5099961;28;20081;-48
2022/07/05 08:30:11;;;;;;;7.30;2.08;;;;;;;37.78;24.50;93616.38;5042675;28;20613;-45
2022/07/05 08:32:36;;;;;;;5.30;2.00;;;;;;;37.63;24.71;93603.47;5044789;28;20033;-42
2022/07/05 08:35:02;;;;;;;1.83;1.70;;;;;;;37.54;25.11;93611.44;5044615;28;20017;-44
2022/07/05 08:37:27;;;;;;;2.25;1.77;;;;;;;37.85;24.96;93603.38;5044685;28;20082;-42
2022/07/05 08:39:53;;;;;;;2.60;2.08;;;;;;;37.81;26.11;93598.38;5044671;28;20043;-43
2022/07/05 08:42:18;;;;;;;2.92;2.10;;;;;;;37.11;25.00;93613.03;5044290;28;20024;-46
2022/07/05 08:44:45;;;;;;;5.07;2.58;;;;;;;36.69;24.48;93607.38;5040221;28;20027;-45
2022/07/05 08:47:11;;;;;;;4.80;2.72;;;;;;;36.19;26.23;93597.31;5038319;28;20442;-44
2022/07/05 08:49:38;;;;;;;2.70;2.33;;;;;;;36.70;25.63;93603.03;5045700;28;20021;-44
2022/07/05 08:52:05;;;;;;;4.63;2.40;;;;;;;37.13;25.23;93596.50;5044105;28;20021;-44
2022/07/05 08:54:31;;;;;;;5.63;2.22;;;;;;;37.03;25.30;93601.56;5038528;28;20029;-43
2022/07/05 08:56:57;;;;;;;3.50;2.63;;;;;;;37.45;24.90;93594.94;5045854;28;20504;-44
2022/07/05 08:59:22;;;;;;;7.38;3.05;;;;;;;37.59;24.58;93607.13;5044435;28;20156;-45
2022/07/05 09:01:49;;;;;;;4.10;2.30;;;;;;;37.68;24.66;93596.97;5044306;28;20025;-44
2022/07/05 09:04:16;;;;;;;2.75;2.53;;;;;;;37.72;23.27;93596.97;5044600;28;20021;-46
2022/07/05 09:06:46;;;;;;;5.05;3.20;;;;;;;38.01;23.60;93593.91;5040342;28;20021;-44
2022/07/05 09:09:12;;;;;;;8.40;3.30;;;;;;;38.52;24.88;93598.56;5040729;28;20029;-44
2022/07/05 09:11:40;;;;;;;2.97;2.67;;;;;;;38.79;23.39;93604.13;5044021;28;20025;-45
2022/07/05 09:14:18;;;;;;;7.95;2.65;;;;;;;38.89;23.76;93592.47;5043917;28;20032;-45
2022/07/05 09:16:43;;;;;;;5.82;2.60;;;;;;;38.52;24.16;93589.19;5043575;28;20121;-46
2022/07/05 09:19:09;;;;;;;3.55;2.47;;;;;;;38.79;24.37;93590.41;5043410;28;20111;-45
2022/07/05 09:21:35;;;;;;;5.03;2.13;;;;;;;38.74;23.20;93589.03;5041441;28;20034;-45
2022/07/05 09:24:03;;;;;;;3.05;2.75;;;;;;;38.67;23.82;93585.44;5044505;28;20056;-43
2022/07/05 09:26:40;;;;;;;5.05;2.97;;;;;;;38.26;23.50;93584.38;5042159;28;20490;-44
2022/07/05 09:29:14;;;;;;;9.75;7.13;;;;;;;38.42;24.92;93580.63;5040998;28;20052;-49
2022/07/05 09:31:41;;;;;;;5.70;4.13;;;;;;;38.50;24.62;93575.50;5030844;28;20029;-47
2022/07/05 09:34:08;;;;;;;6.75;3.97;;;;;;;38.70;23.92;93579.69;5030337;28;20577;-45
2022/07/05 09:36:55;;;;;;;6.05;3.55;;;;;;;37.88;23.47;93581.75;5030546;28;20026;-44
2022/07/05 09:39:29;;;;;;;10.98;3.92;;;;;;;37.66;24.46;93576.09;5029332;28;20022;-47
2022/07/05 09:42:20;;;;;;;4.43;3.78;;;;;;;37.73;23.94;93580.38;5028994;28;20033;-46
2022/07/05 09:44:57;;;;;;;4.07;3.67;;;;;;;38.16;24.10;93578.66;5030873;28;20029;-45
2022/07/05 09:47:24;;;;;;;4.65;3.50;;;;;;;38.88;22.79;93571.53;5028950;28;20139;-45
2022/07/05 09:49:52;;;;;;;6.53;2.80;;;;;;;38.87;24.78;93566.50;5029835;28;20025;-45
2022/07/05 09:52:33;;;;;;;3.90;3.28;;;;;;;38.49;23.49;93565.41;5030455;28;20406;-45
2022/07/05 09:55:07;;;;;;;5.70;3.53;;;;;;;38.43;23.44;93571.25;5028538;28;20049;-44
2022/07/05 09:57:39;;;;;;;7.38;4.03;;;;;;;38.52;24.22;93563.94;5027451;28;20026;-47
2022/07/05 10:00:16;;;;;;;5.03;4.13;;;;;;;38.66;22.82;93563.09;5030293;28;20029;-46
2022/07/05 10:02:47;;;;;;;4.78;3.42;;;;;;;38.83;23.17;93566.56;5028031;28;20038;-45
2022/07/05 10:05:20;;;;;;;3.97;3.60;;;;;;;38.04;24.01;93567.22;5026508;28;20018;-42
2022/07/05 10:07:56;;;;;;;7.28;3.33;;;;;;;37.92;24.91;93555.78;5023440;28;20024;-42
2022/07/05 10:10:27;;;;;;;4.68;3.75;;;;;;;38.01;22.47;93557.13;5023202;28;20029;-44
2022/07/05 10:12:54;;;;;;;4.63;4.05;;;;;;;38.00;24.10;93560.75;5028811;28;20444;-43
2022/07/05 10:15:25;;;;;;;5.20;4.25;;;;;;;38.14;23.47;93557.78;5029705;28;20051;-45
2022/07/05 10:17:59;;;;;;;5.43;4.28;;;;;;;38.49;23.53;93556.75;5019540;28;20583;-45
2022/07/05 10:20:36;;;;;;;4.30;3.63;;;;;;;38.78;24.04;93557.22;5027729;28;20034;-45
2022/07/05 10:23:16;;;;;;;4.87;3.70;;;;;;;39.48;21.72;93555.69;5022793;28;20383;-45
2022/07/05 10:25:49;;;;;;;5.07;3.72;;;;;;;38.95;22.60;93551.97;5021995;28;20437;-44
2022/07/05 10:28:20;;;;;;;4.45;3.85;;;;;;;37.92;22.68;93547.84;5015564;28;20038;-44
2022/07/05 10:30:46;;;;;;;7.65;4.32;;;;;;;37.13;23.62;93541.06;5009973;28;20434;-43
2022/07/05 10:33:14;;;;;;;4.35;3.63;;;;;;;37.44;25.02;93556.06;5007858;28;20026;-44
2022/07/05 10:35:42;;;;;;;;;;;;;;;36.95;25.32;93547.59;5010488;28;20495;-43
2022/07/05 10:38:09;;;;;;;5.07;3.42;;;;;;;37.14;25.30;93543.19;5009823;28;19917;-44
2022/07/05 10:40:35;;;;;;;4.50;4.10;;;;;;;37.02;24.45;93549.03;5008287;28;20091;-44
2022/07/05 10:43:01;;;;;;;8.60;3.95;;;;;;;37.67;24.60;93534.31;5007842;28;20523;-44
2022/07/05 10:45:28;;;;;;;4.03;3.72;;;;;;;38.01;25.15;93542.03;5009509;28;20512;-45
2022/07/05 10:48:13;;;;;;;5.55;4.13;;;;;;;38.06;25.50;93546.28;5009360;28;20095;-44
2022/07/05 10:50:55;;;;;;;4.68;4.28;;;;;;;36.79;23.32;93533.25;5009558;28;20396;-44
2022/07/05 10:53:24;;;;;;;7.00;4.57;;;;;;;35.75;24.64;93534.78;5009218;28;20117;-44
2022/07/05 10:55:55;;;;;;;5.03;4.50;;;;;;;35.05;25.95;93523.09;5009688;28;20426;-43
2022/07/05 10:58:23;;;;;;;5.05;4.30;;;;;;;35.29;25.62;93520.28;5012516;28;20029;-44
2022/07/05 11:01:23;;;;;;;4.13;3.73;;;;;;;35.09;27.75;93522.41;5027715;28;20033;-43
2022/07/05 11:03:55;;;;;;;7.25;4.38;;;;;;;35.27;27.90;93522.44;5028572;28;20091;-43
2022/07/05 11:06:25;;;;;;;5.03;4.32;;;;;;;35.49;27.45;93520.38;5028230;28;20075;-43
2022/07/05 11:08:57;;;;;;;4.88;3.92;;;;;;;35.57;28.18;93514.63;5028832;28;20032;-44
2022/07/05 11:11:26;;;;;;;4.43;4.03;;;;;;;35.26;26.46;93515.28;5028109;28;20034;-43
2022/07/05 11:13:54;;;;;;;6.03;5.00;;;;;;;35.02;27.09;93513.06;5025841;28;20060;-46
2022/07/05 11:16:22;;;;;;;5.07;4.10;;;;;;;34.97;29.43;93520.91;5028397;28;20017;-43
2022/07/05 11:18:51;;;;;;;5.18;4.47;;;;;;;34.69;28.64;93514.31;5028111;28;20250;-41
2022/07/05 11:21:21;;;;;;;4.57;4.22;;;;;;;34.09;29.13;93517.53;5028214;28;20038;-40
2022/07/05 11:23:47;;;;;;;6.53;4.50;;;;;;;33.77;28.24;93520.84;5028948;28;20057;-42
2022/07/05 11:26:13;;;;;;;6.63;5.53;;;;;;;33.56;29.19;93514.22;5028398;28;20028;-41
2022/07/05 11:28:47;;;;;;;5.65;4.78;;;;;;;33.38;30.32;93511.16;5010283;28;20041;-41
2022/07/05 11:31:44;;;;;;;8.32;4.78;;;;;;;33.38;29.64;93511.16;5028646;28;20025;-43
2022/07/05 11:34:18;;;;;;;5.35;4.88;;;;;;;33.30;30.43;93493.19;5028319;28;20037;-45
2022/07/05 11:37:09;;;;;;;5.72;5.13;;;;;;;33.34;30.19;93496.81;5026400;28;20029;-43
2022/07/05 11:39:35;;;;;;;5.05;4.55;;;;;;;33.32;30.28;93501.78;5021193;28;20021;-42
2022/07/05 11:42:00;;;;;;;5.50;4.38;;;;;;;33.11;30.59;93508.72;5028690;28;20095;-43
2022/07/05 11:44:32;;;;;;;11.93;5.35;;;;;;;32.64;30.57;93502.44;5029481;28;20117;-41